• Join FlightAware (Why Join?)
  • Login
  • US Flag 
01:01PM EST


 

Airport Tracker/Info


-or-


 

Live Flight TrackerFlight Track Log ✈ TCF3494 ✈ 04-Jun-2013 ✈ KORD - KLGA

Flight Track Log - Related Links

Times and Time Zones

All times are in EDT time to prevent confusion due to time zone crossing. See the TCF3494 flight status page for this flight to view local times or setup timezone preferences in your user account.

Time Position Orientation Groundspeed Altitude Reporting Facility
EDT Latitude Longitude Course Direction KTS MPH feet Rate Location/Type
08:05PM 42.0000 -87.8833 90° East 147 169 1,800  Level Chicago TRACON
08:06PM 42.0000 -87.8167 90° East 182 209 3,500 1,560 Climbing Chicago TRACON
08:07PM 42.0069 -87.8008 59° Northeast 182 209 4,100 1,920 Climbing Chicago Center
08:08PM 42.0128 -87.7089 85° East 228 262 6,400 2,820 Climbing Chicago Center
08:09PM 41.9992 -87.5797 98° East 286 329 9,900 3,060 Climbing Chicago Center
08:10PM 41.9867 -87.4597 98° East 316 364 12,800 2,520 Climbing Chicago Center
08:11PM 41.9333 -86.8225 90° East  Level FlightAware Approximate
08:11PM 41.9736 -87.3319 98° East 341 392 15,200  Level Chicago Center
08:12PM 41.9592 -87.1983 98° East 359 413 17,800 2,400 Climbing Chicago Center
08:13PM 41.9456 -87.0608 98° East 371 427 20,200 1,860 Climbing Chicago Center
08:14PM 41.9483 -86.9125 89° East 398 458 21,700 1,320 Climbing Chicago Center
08:15PM 41.9497 -86.7247 89° East 418 481 23,000 1,380 Climbing Chicago Center
08:16PM 41.9519 -86.5797 89° East 423 487 24,600 1,500 Climbing Chicago Center
08:17PM 41.9539 -86.4178 89° East 432 497 26,200 1,140 Climbing Chicago Center
08:18PM 41.9553 -86.2525 89° East 443 510 27,000 360 Climbing Chicago Center
08:19PM 41.9408 -86.0556 96° East 443 510 27,000 720 Level Chicago Center
08:20PM 41.9250 -85.8883 97° East 449 517 28,500 1,320 Climbing Chicago Center
08:21PM 41.9097 -85.7197 97° East 454 522 29,800 1,140 Climbing Chicago Center
08:22PM 41.8928 -85.5461 97° East 464 534 30,900 1,080 Climbing Chicago Center
08:23PM 41.8764 -85.3697 97° East 470 541 32,100 900 Climbing Chicago Center
08:24PM 41.8589 -85.1911 97° East 475 547 32,800 480 Climbing Chicago Center
08:25PM 41.8394 -85.0100 98° East 483 556 33,100 720 Climbing Chicago Center
08:26PM 41.8208 -84.8253 98° East 496 571 34,300 900 Climbing Chicago Center
08:27PM 41.7978 -84.6092 98° East 489 563 35,000  Climbing Chicago Center
08:28PM 41.7794 -84.4267 98° East 493 567 34,400 -1,020 Descending Chicago Center
08:29PM 41.7772 -84.2453 91° East 489 563 33,000 -720 Descending Chicago Center
08:30PM 41.7742 -84.0497 91° East 482 555 33,000  Level Cleveland Center
08:31PM 41.7711 -83.8658 91° East 482 555 33,000  Level Cleveland Center
08:32PM 41.7700 -83.6792 90° East 487 560 33,000  Level Cleveland Center
08:33PM 41.7622 -83.4978 93° East 487 560 33,000  Level Cleveland Center
08:34PM 41.7439 -83.3161 98° East 492 566 33,000  Level Cleveland Center
08:35PM 41.7272 -83.1344 97° East 492 566 33,000  Level Cleveland Center
08:36PM 41.7083 -82.9531 98° East 492 566 33,000  Level Cleveland Center
08:37PM 41.6911 -82.7717 97° East 492 566 33,000  Level Cleveland Center
08:38PM 41.6714 -82.5903 98° East 492 566 33,000  Level Cleveland Center
08:39PM 41.6536 -82.4089 97° East 492 566 33,000  Level Cleveland Center
08:40PM 41.6356 -82.2278 98° East 487 560 33,000  Level Cleveland Center
08:41PM 41.6150 -82.0439 98° East 487 560 33,000  Level Cleveland Center
08:42PM 41.5964 -81.8631 98° East 487 560 33,000  Level Cleveland Center
08:43PM 41.5753 -81.6767 99° East 487 560 33,000  Level Cleveland Center
08:44PM 41.5561 -81.4933 98° East 492 566 33,000  Level Cleveland Center
08:45PM 41.5364 -81.3322 99° East 498 573 33,000  Level Cleveland Center
08:46PM 41.5144 -81.1517 99° East 498 573 33,000  Level Cleveland Center
08:47PM 41.4986 -80.9686 97° East 498 573 33,000  Level Cleveland Center
08:48PM 41.4825 -80.7883 97° East 498 573 33,000  Level Cleveland Center
08:49PM 41.4639 -80.5914 97° East 493 567 33,000  Level Cleveland Center
08:50PM 41.4492 -80.4114 96° East 493 567 33,000  Level Cleveland Center
08:51PM 41.4342 -80.2453 97° East 493 567 33,000  Level Cleveland Center
08:52PM 41.4189 -80.0681 97° East 488 562 33,000  Level Cleveland Center
08:53PM 41.3969 -79.8717 98° East 488 562 33,000  Level Cleveland Center
08:54PM 41.3792 -79.6919 97° East 488 562 33,000  Level Cleveland Center
08:55PM 41.3631 -79.5264 97° East 494 568 33,000  Level Cleveland Center
08:56PM 41.3467 -79.3439 97° East 494 568 33,000  Level Cleveland Center
08:57PM 41.3258 -79.1647 99° East 494 568 33,000  Level Cleveland Center
08:58PM 41.3069 -78.9853 98° East 494 568 33,000  Level Cleveland Center
08:59PM 41.2875 -78.8036 98° East 494 568 33,000  Level Cleveland Center
09:00PM 41.2700 -78.6244 97° East 494 568 33,000  Level Cleveland Center
09:01PM 41.2481 -78.4428 99° East 494 568 33,000  Level Cleveland Center
09:03PM 41.2261 -78.2392 98° East 498 573 33,000  Level New York Center
09:04PM 41.2039 -78.0600 99° East 498 573 33,000  Level New York Center
09:05PM 41.1814 -77.8783 99° East 493 567 33,000 -120 Level New York Center
09:06PM 41.1589 -77.6994 99° East 488 562 32,800 -1,140 Descending New York Center
09:07PM 41.1358 -77.5181 100° East 488 562 30,800 -1,980 Descending New York Center
09:08PM 41.1125 -77.3394 100° East 488 562 29,000 -1,800 Descending New York Center
09:09PM 41.0908 -77.1667 99° East 488 562 27,300 -1,680 Descending New York Center
09:10PM 41.0664 -76.9992 101° East 482 555 25,700 -1,620 Descending New York Center
09:11PM 41.0458 -76.8322 99° East 465 535 24,000 -1,620 Descending New York Center
09:12PM 41.0206 -76.6731 102° East 453 521 22,500 -1,380 Descending New York Center
09:13PM 40.9853 -76.4994 105° East 448 516 21,300 -1,620 Descending New York Center
09:14PM 40.9500 -76.3675 109° East 438 504 19,400 -1,800 Descending New York Center
09:15PM 40.9153 -76.2189 107° East 431 496 17,800 -1,680 Descending New York Center
09:16PM 40.8764 -76.0622 108° East 418 481 16,100 -1,620 Descending New York Center
09:17PM 40.8431 -75.9225 107° East 413 475 14,700 -1,440 Descending New York Center
09:18PM 40.8092 -75.7883 108° East 400 460 13,300 -900 Descending New York Center
09:19PM 40.7772 -75.6572 108° East 386 444 13,000 -180 Descending New York Center
09:20PM 40.7467 -75.5372 109° East 374 430 13,000  Level New York Center
09:21PM 40.7167 -75.4036 106° East 374 430 13,000  Level New York Center
09:22PM 40.6883 -75.2731 106° East 374 430 13,000 -720 Level New York Center
09:23PM 40.6578 -75.1453 107° East 369 425 11,600 -1,320 Descending New York Center
09:24PM 40.5925 -75.0481 131° Southeast 363 418 10,400 -780 Descending New York Center
09:25PM 40.5428 -74.9222 117° Southeast 352 405 10,100 -300 Descending New York Center
09:25PM 40.5333 -74.8667 103° East 353 406 10,000 -120 Descending New York TRACON
09:26PM 40.5000 -74.7667 114° Southeast 353 406 10,000 -360 Level New York TRACON
09:27PM 40.4667 -74.6667 114° Southeast 311 358 9,400 -480 Descending New York TRACON
09:28PM 40.4333 -74.5667 114° Southeast 292 336 9,100 -720 Descending New York TRACON
09:29PM 40.4500 -74.4833 75° East 289 333 8,100 -540 Descending New York TRACON
09:30PM 40.4667 -74.3833 78° East 286 329 8,100 -480 Level New York TRACON
09:31PM 40.5000 -74.2833 66° East 261 300 7,100 -600 Descending New York TRACON
09:32PM 40.5167 -74.2000 75° East 200 230 6,900 -780 Descending New York TRACON
09:33PM 40.5333 -74.1333 72° East 192 221 5,600 -900 Descending New York TRACON
09:34PM 40.5500 -74.0667 72° East 201 231 5,100 -720 Descending New York TRACON
09:35PM 40.6000 -74.0167 37° Northeast 187 215 4,200 -1,200 Descending New York TRACON
09:36PM 40.6500 -73.9833 27° Northeast 186 214 2,800 -840 Descending New York TRACON
09:37PM 40.6833 -73.9500 37° Northeast 182 209 2,600 -420 Descending New York TRACON
09:38PM 40.7167 -73.9000 49° Northeast 166 191 2,000 -720 Descending New York TRACON
09:39PM 40.7333 -73.8667 57° Northeast 138 159 1,300 -780 Descending New York TRACON